Tuesday, April 24, 2018, 4:19 AM EDT
Back to Local

KBLM, Belmar-farmingdale

Location: Farmingdale, NJ, United States Lat: 40.183
Local Time: 4:19 AM EDT ( 8:19 GMT) Lon: -74.133
Time Zone: US/Eastern Elev: 157 ft

Show me the last for .
Show Coded

Time T Td Feel RH Dir Speed Gust Alt SLP Vis Weather Sky Remarks
2018-04-24 04:12 41 39 38 93 100° 5 - - - 1 -RA BR CLR None
2018-04-24 03:56 40 38 37 92 100° 5 - - - 10 CLR 1-hr Precip Total: Trace
2018-04-24 03:41 39 39 37 100 100° 3 - 30.41 - 4 BR CLR 1-hr Precip Total: Trace
2018-04-24 03:28 43 41 41 93 100° 3 - 30.41 - 1 -RA BR CLR Variable visibility
1-hr Precip Total: Trace
2018-04-24 03:23 43 41 41 93 110° 3 - 30.41 - 0 -RA BR CLR Variable visibility
1-hr Precip Total: Trace
2018-04-24 03:17 41 39 39 93 100° 3 - 30.41 - 1 BR CLR None
2018-04-24 02:56 41 39 39 92 90° 3 - 30.40 30.42 10 CLR None
2018-04-24 01:56 42 40 40 91 150° 3 - 30.42 30.44 10 CLR 6-hr Min Temp (2am): 42.1°F
6-hr Max Temp (2am): 51.1°F
2018-04-24 00:56 44 42 43 92 190° 3 - 30.43 30.45 10 CLR 24-hr Min Temp (1am): 35.1°F
24-hr Max Temp (1am): 57.9°F
2018-04-23 23:56 45 42 - 89 - Calm - 30.43 30.45 10 CLR None
2018-04-23 22:56 46 43 - 88 - - - - - 10 CLR None
2018-04-23 21:56 48 43 47 82 140° 3 - 30.46 30.47 10 CLR None
2018-04-23 20:56 49 42 47 77 150° 6 - 30.45 30.47 10 CLR None
2018-04-23 19:56 51 41 - 68 140° 8 - 30.43 30.45 10 CLR 6-hr Min Temp (8pm): 51.1°F
6-hr Max Temp (8pm): 57.9°F
2018-04-23 18:56 54 38 - 54 130° 7 - 30.44 30.45 10 CLR None
2018-04-23 17:56 55 38 - 52 130° 10 - 30.44 30.45 10 CLR None
2018-04-23 16:56 57 38 - 48 110° 8 - 30.45 30.46 10 CLR None
2018-04-23 15:56 56 39 - 52 140° 12 - 30.46 30.47 10 CLR None
2018-04-23 14:56 57 39 - 50 110° 8 - 30.47 30.48 10 CLR None
2018-04-23 13:56 56 35 - 45 100° 10 - 30.48 30.49 10 CLR 6-hr Min Temp (2pm): 46.9°F
6-hr Max Temp (2pm): 57.9°F
2018-04-23 12:56 57 34 - 41 80° 10 - 30.47 30.49 10 CLR None
2018-04-23 11:56 57 32 - 38 110° 10 - 30.48 30.50 10 CLR None
2018-04-23 10:56 58 30 - 34 90° 9 - 30.49 30.50 10 CLR None
2018-04-23 09:56 56 29 - 35 40° 5 - 30.49 30.50 10 CLR None
2018-04-23 08:56 53 32 - 44 30° 5 - 30.49 30.50 10 CLR None
2018-04-23 07:56 47 35 46 63 320° 3 - 30.47 30.49 10 CLR 6-hr Min Temp (8am): 35.1°F
6-hr Max Temp (8am): 46.9°F
2018-04-23 06:56 38 32 - 78 - Calm - 30.46 30.48 10 CLR None
2018-04-23 05:56 38 32 33 78 210° 7 - 30.44 30.46 10 CLR None
2018-04-23 04:56 39 32 36 75 170° 5 - 30.43 30.45 10 CLR None

Support USWX by starting your Amazon purchase here.